This is the latest recevied weather packets stored in our database for station/object N3SBK. If no packets are shown the sender has not sent any weather packets the latest 10 day(s).
| Time | Temp. | Humidity | Pressure | Rain* | Wind** | Luminosity | Snow |
|---|---|---|---|---|---|---|---|
| 1777826212 | 11.11° C | 40% | 1007.5 hPa | 0 mm | - | 731 W/m² | - |
| 1777825909 | 10.56° C | 46% | 1007.8 hPa | 0 mm | - | 735 W/m² | - |
| 1777825607 | 10.56° C | 42% | 1007.5 hPa | 0 mm | - | 735 W/m² | - |
| 1777825305 | 10.56° C | 41% | 1007.4 hPa | 0 mm | - | 399 W/m² | - |
| 1777825001 | 10.56° C | 41% | 1007.7 hPa | 0 mm | - | 731 W/m² | - |
| 1777824697 | 10° C | 44% | 1007.9 hPa | 0 mm | - | 727 W/m² | - |
| 1777824395 | 10° C | 44% | 1007.9 hPa | 0 mm | - | 765 W/m² | - |
| 1777824090 | 9.44° C | 46% | 1008 hPa | 0 mm | - | 709 W/m² | - |
| 1777823786 | 9.44° C | 46% | 1007.8 hPa | 0 mm | - | 705 W/m² | - |
| 1777823484 | 9.44° C | 48% | 1008 hPa | 0 mm | - | 192 W/m² | - |
| 1777823181 | 10° C | 49% | 1007.9 hPa | 0 mm | - | 148 W/m² | - |
| 1777822879 | 9.44° C | 47% | 1007.9 hPa | 0 mm | - | 159 W/m² | - |
| 1777822576 | 10° C | 46% | 1007.9 hPa | 0 mm | - | 694 W/m² | - |
| 1777822274 | 9.44° C | 48% | 1008 hPa | 0 mm | - | 699 W/m² | - |
| 1777821971 | 9.44° C | 47% | 1008.1 hPa | 0 mm | - | 712 W/m² | - |
| 1777821669 | 8.89° C | 50% | 1008.2 hPa | 0 mm | - | 670 W/m² | - |
| 1777821367 | 8.89° C | 51% | 1008.2 hPa | 0 mm | - | 684 W/m² | - |
| 1777821063 | 8.89° C | 48% | 1008.3 hPa | 0 mm | - | 120 W/m² | - |
| 1777820760 | 8.89° C | 48% | 1008.3 hPa | 0 mm | - | 663 W/m² | - |
| 1777820456 | 8.33° C | 51% | 1008.3 hPa | 0 mm | - | 640 W/m² | - |
| 1777820153 | 8.33° C | 49% | 1008.1 hPa | 0 mm | - | 675 W/m² | - |
| 1777819851 | 8.33° C | 54% | 1008.1 hPa | 0 mm | - | 306 W/m² | - |
| 1777819548 | 7.78° C | 53% | 1008.1 hPa | 0 mm | - | 627 W/m² | - |
| 1777819245 | 7.78° C | 55% | 1008.5 hPa | 0 mm | - | 576 W/m² | - |
| 1777818942 | 7.22° C | 57% | 1008.4 hPa | 0 mm | - | 416 W/m² | - |
* Rain latest hour (hover to see other rain measurements)
** Current wind speed in m/s (hover to see current wind gust speed)